createdAt,value
2022-12-23T00:01:08.661Z,0.85
2022-12-23T00:03:13.533Z,1.10
2022-12-23T00:05:16.967Z,1.45
2022-12-23T00:07:20.136Z,1.27
2022-12-23T00:09:23.352Z,3.65
2022-12-23T00:11:27.866Z,3.85
2022-12-23T00:13:48.687Z,46.63
2022-12-23T00:15:52.257Z,36.25
2022-12-23T00:17:55.413Z,11.65
2022-12-23T00:20:00.194Z,3.78
2022-12-23T00:22:03.355Z,16.80
2022-12-23T00:24:07.324Z,2.55
2022-12-23T00:26:16.359Z,1.23
2022-12-23T00:28:22.688Z,1.00
2022-12-23T00:30:25.790Z,0.80
2022-12-23T00:32:28.965Z,1.10
2022-12-23T00:34:32.059Z,0.98
2022-12-23T00:36:38.230Z,0.88
2022-12-23T00:38:59.579Z,1.10
2022-12-23T00:41:20.170Z,1.10
2022-12-23T00:43:23.669Z,0.75
2022-12-23T00:45:27.199Z,0.75
2022-12-23T00:47:48.132Z,0.80
2022-12-23T00:49:51.240Z,0.52
2022-12-23T00:51:55.668Z,1.13
2022-12-23T00:53:58.758Z,0.60
2022-12-23T00:56:01.897Z,0.55
2022-12-23T00:58:05.016Z,0.50
2022-12-23T01:00:10.415Z,0.60
2022-12-23T01:02:31.315Z,0.50
2022-12-23T01:04:52.447Z,0.80
2022-12-23T01:06:56.874Z,0.47
2022-12-23T01:09:00.027Z,0.82
2022-12-23T01:11:04.823Z,2.70
2022-12-23T01:13:08.480Z,2.08
2022-12-23T01:15:12.278Z,1.48
2022-12-23T01:17:15.635Z,3.97
2022-12-23T01:19:18.783Z,2.45
2022-12-23T01:21:21.979Z,3.13
2022-12-23T01:23:25.486Z,2.08
2022-12-23T01:25:28.639Z,1.45
2022-12-23T01:27:31.827Z,1.70
2022-12-23T01:29:35.011Z,1.38
2022-12-23T01:31:38.206Z,3.78
2022-12-23T01:33:41.416Z,1.40
2022-12-23T01:35:44.626Z,2.70
2022-12-23T01:37:47.797Z,2.40
2022-12-23T01:39:52.377Z,2.05
2022-12-23T01:42:13.271Z,3.15
2022-12-23T01:44:56.894Z,2.60
2022-12-23T01:47:00.167Z,2.17
2022-12-23T01:49:03.416Z,1.80
2022-12-23T01:51:11.435Z,7.78
2022-12-23T01:53:18.654Z,6.65
2022-12-23T01:55:28.092Z,3.50
2022-12-23T01:57:31.592Z,2.55
2022-12-23T01:59:52.518Z,2.58
2022-12-23T02:02:13.170Z,1.30
2022-12-23T02:04:22.133Z,2.22
2022-12-23T02:06:46.327Z,0.60
2022-12-23T02:09:06.934Z,1.60
2022-12-23T02:11:32.309Z,1.30
2022-12-23T02:14:07.556Z,0.63
2022-12-23T02:16:16.630Z,1.65
2022-12-23T02:18:56.187Z,3.30
2022-12-23T02:21:16.498Z,1.33
2022-12-23T02:24:11.936Z,1.17
2022-12-23T02:26:59.648Z,2.03
2022-12-23T02:29:39.808Z,1.58
2022-12-23T02:31:56.481Z,1.60
2022-12-23T02:34:05.166Z,2.35
2022-12-23T02:36:23.378Z,1.20
2022-12-23T02:38:32.037Z,1.95
2022-12-23T02:40:40.573Z,1.27
2022-12-23T02:42:50.873Z,1.92
2022-12-23T02:45:01.260Z,1.60
2022-12-23T02:47:11.904Z,0.80
2022-12-23T02:49:20.646Z,0.43
2022-12-23T02:51:30.352Z,0.30
2022-12-23T02:53:38.885Z,0.60
2022-12-23T02:55:46.232Z,0.10
2022-12-23T02:57:52.645Z,0.30
2022-12-23T02:59:58.206Z,0.00
2022-12-23T03:02:02.857Z,0.20
2022-12-23T03:04:07.735Z,0.30
2022-12-23T03:06:22.155Z,0.20
2022-12-23T03:08:28.683Z,0.20
2022-12-23T03:10:44.249Z,0.38
2022-12-23T03:12:56.080Z,3.58
2022-12-23T03:15:25.823Z,5.25
2022-12-23T03:17:44.207Z,4.97
2022-12-23T03:19:54.684Z,2.20
2022-12-23T03:22:11.198Z,4.13
2022-12-23T03:24:23.452Z,3.35
2022-12-23T03:26:32.870Z,0.73
2022-12-23T03:28:45.619Z,0.30
2022-12-23T03:30:56.241Z,0.25
2022-12-23T03:33:05.249Z,0.30
2022-12-23T03:35:11.568Z,0.30
2022-12-23T03:37:17.709Z,0.20
2022-12-23T03:39:25.363Z,0.17
2022-12-23T03:41:32.868Z,0.10
2022-12-23T03:43:46.753Z,0.10
2022-12-23T03:45:58.996Z,0.10
2022-12-23T03:48:07.467Z,0.05
2022-12-23T03:50:15.499Z,0.10
2022-12-23T03:52:22.870Z,0.10
2022-12-23T03:54:32.110Z,0.10
2022-12-23T03:56:40.156Z,0.00
2022-12-23T03:58:48.286Z,0.10
2022-12-23T04:01:01.086Z,0.10
2022-12-23T04:03:12.928Z,0.10
2022-12-23T04:05:23.751Z,0.10
2022-12-23T04:07:32.654Z,0.15
2022-12-23T04:09:36.876Z,0.43
2022-12-23T04:11:40.459Z,0.30
2022-12-23T04:13:43.862Z,0.20
2022-12-23T04:15:47.446Z,0.10
2022-12-23T04:17:51.808Z,0.00
2022-12-23T04:19:55.250Z,0.05
2022-12-23T04:21:59.854Z,0.10
2022-12-23T04:24:03.083Z,0.00
2022-12-23T04:26:06.319Z,0.10
2022-12-23T04:28:09.576Z,0.20
2022-12-23T04:30:14.984Z,0.10
2022-12-23T04:32:18.204Z,0.30
2022-12-23T04:34:21.512Z,0.10
2022-12-23T04:36:24.844Z,0.20
2022-12-23T04:38:29.414Z,0.10
2022-12-23T04:40:32.623Z,0.00
2022-12-23T04:42:36.078Z,0.10
2022-12-23T04:44:39.350Z,0.03
2022-12-23T04:46:42.847Z,0.10
2022-12-23T04:48:46.094Z,0.10
2022-12-23T04:50:49.290Z,3.15
2022-12-23T04:52:52.519Z,0.30
2022-12-23T04:54:57.111Z,0.20
2022-12-23T04:57:00.364Z,0.10
2022-12-23T04:59:04.289Z,0.20
2022-12-23T05:01:10.292Z,0.15
2022-12-23T05:03:13.729Z,0.20
2022-12-23T05:05:17.226Z,0.15
2022-12-23T05:07:20.488Z,0.10
2022-12-23T05:09:23.874Z,0.10
2022-12-23T05:11:28.438Z,0.20
2022-12-23T05:13:31.643Z,0.10
2022-12-23T05:15:34.869Z,0.10
2022-12-23T05:17:38.084Z,0.20
2022-12-23T05:19:41.261Z,2.90
2022-12-23T05:21:44.506Z,1.42
2022-12-23T05:23:47.694Z,0.80
2022-12-23T05:25:53.653Z,0.57
2022-12-23T05:27:58.183Z,0.30
2022-12-23T05:30:01.346Z,0.10
2022-12-23T05:32:04.945Z,0.30
2022-12-23T05:34:08.341Z,0.05
2022-12-23T05:36:13.245Z,0.10
2022-12-23T05:38:16.433Z,0.10
2022-12-23T05:40:24.126Z,0.10
2022-12-23T05:42:29.298Z,0.10
2022-12-23T05:44:34.090Z,0.60
2022-12-23T05:46:37.784Z,0.13
2022-12-23T05:48:41.040Z,0.10
2022-12-23T05:50:44.225Z,0.20
2022-12-23T05:52:47.503Z,0.13
2022-12-23T05:54:50.685Z,0.20
2022-12-23T05:56:53.848Z,0.45
2022-12-23T05:58:57.018Z,0.98
2022-12-23T06:01:03.022Z,0.57
2022-12-23T06:03:06.477Z,0.55
2022-12-23T06:05:10.976Z,0.28
2022-12-23T06:07:14.125Z,0.50
2022-12-23T06:09:17.322Z,0.40
2022-12-23T06:11:20.514Z,0.47
2022-12-23T06:13:23.812Z,0.40
2022-12-23T06:15:26.989Z,0.60
2022-12-23T06:17:31.590Z,1.40
2022-12-23T06:19:34.807Z,1.65
2022-12-23T06:21:37.957Z,1.08
2022-12-23T06:23:41.210Z,1.25
2022-12-23T06:25:44.452Z,2.90
2022-12-23T06:27:47.695Z,1.50
2022-12-23T06:29:50.932Z,1.90
2022-12-23T06:31:54.183Z,1.85
2022-12-23T06:33:58.751Z,2.08
2022-12-23T06:36:01.934Z,0.80
2022-12-23T06:38:10.278Z,2.15
2022-12-23T06:40:15.620Z,1.58
2022-12-23T06:42:19.205Z,1.90
2022-12-23T06:44:22.440Z,2.53
2022-12-23T06:46:25.805Z,2.05
2022-12-23T06:48:29.220Z,2.53
2022-12-23T06:50:33.907Z,2.38
2022-12-23T06:52:37.128Z,1.98
2022-12-23T06:54:40.391Z,1.50
2022-12-23T06:56:43.615Z,2.10
2022-12-23T06:58:46.859Z,1.90
2022-12-23T07:00:50.117Z,1.80
2022-12-23T07:02:55.210Z,1.65
2022-12-23T07:04:58.492Z,1.45
2022-12-23T07:07:03.057Z,1.38
2022-12-23T07:09:06.329Z,0.95
2022-12-23T07:11:09.690Z,1.88
2022-12-23T07:13:13.077Z,1.50
2022-12-23T07:15:16.355Z,0.98
2022-12-23T07:17:19.538Z,1.60
2022-12-23T07:19:22.816Z,2.17
2022-12-23T07:21:29.601Z,1.95
2022-12-23T07:23:34.627Z,1.17
2022-12-23T07:25:37.870Z,0.70
2022-12-23T07:27:41.074Z,1.02
2022-12-23T07:29:44.295Z,1.20
2022-12-23T07:31:47.525Z,0.95
2022-12-23T07:33:50.793Z,4.00
2022-12-23T07:35:59.001Z,2.28
2022-12-23T07:38:02.636Z,3.03
2022-12-23T07:40:09.259Z,3.13
2022-12-23T07:44:36.127Z,4.20
2022-12-23T07:46:40.301Z,2.95
2022-12-23T07:48:43.591Z,2.78
2022-12-23T07:50:46.824Z,3.22
2022-12-23T07:52:50.878Z,4.28
2022-12-23T07:54:54.025Z,17.52
2022-12-23T07:56:58.595Z,10.32
2022-12-23T07:59:01.777Z,19.70
2022-12-23T08:01:08.957Z,20.15
2022-12-23T08:03:13.043Z,8.38
2022-12-23T08:05:16.509Z,9.13
2022-12-23T08:07:19.763Z,8.23
2022-12-23T08:09:22.922Z,6.70
2022-12-23T08:11:26.090Z,3.83
2022-12-23T08:13:32.303Z,3.55
2022-12-23T08:15:35.554Z,3.65
2022-12-23T08:17:38.736Z,1.63
2022-12-23T08:19:41.980Z,1.02
2022-12-23T08:21:45.147Z,0.70
2022-12-23T08:23:49.241Z,0.85
2022-12-23T08:26:01.433Z,1.10
2022-12-23T08:28:05.007Z,0.98
2022-12-23T08:30:11.834Z,1.10
2022-12-23T08:32:15.014Z,1.58
2022-12-23T08:34:19.388Z,1.17
2022-12-23T08:36:25.612Z,1.40
2022-12-23T08:38:28.909Z,1.90
2022-12-23T08:40:32.146Z,1.85
2022-12-23T08:42:35.325Z,1.67
2022-12-23T08:44:38.543Z,1.80
2022-12-23T08:46:43.824Z,2.28
2022-12-23T08:48:49.731Z,2.30
2022-12-23T08:50:53.236Z,2.30
2022-12-23T08:52:56.439Z,2.10
2022-12-23T08:54:59.620Z,1.70
2022-12-23T08:57:02.813Z,2.20
2022-12-23T08:59:06.115Z,2.10
2022-12-23T09:01:12.253Z,1.42
2022-12-23T09:03:16.932Z,1.23
2022-12-23T09:05:20.184Z,1.38
2022-12-23T09:07:23.358Z,1.73
2022-12-23T09:09:26.504Z,1.65
2022-12-23T09:11:30.821Z,1.90
2022-12-23T09:13:35.852Z,2.20
2022-12-23T09:15:42.937Z,2.25
2022-12-23T09:17:46.124Z,4.03
2022-12-23T09:19:53.273Z,3.42
2022-12-23T09:21:56.681Z,8.25
2022-12-23T09:23:59.864Z,2.92
2022-12-23T09:26:03.053Z,2.58
2022-12-23T09:28:07.821Z,2.03
2022-12-23T09:30:12.550Z,1.88
2022-12-23T09:32:15.679Z,1.80
2022-12-23T09:34:19.033Z,1.33
2022-12-23T09:36:24.132Z,1.58
2022-12-23T09:38:27.410Z,1.20
2022-12-23T09:40:33.933Z,1.45
2022-12-23T09:42:54.679Z,1.30
2022-12-23T09:45:13.271Z,1.42
2022-12-23T09:47:20.438Z,1.45
2022-12-23T09:49:25.101Z,1.23
2022-12-23T09:51:31.803Z,1.70
2022-12-23T09:53:48.464Z,1.77
2022-12-23T09:56:02.932Z,1.60
2022-12-23T09:58:15.458Z,1.73
2022-12-23T10:00:20.450Z,2.35
2022-12-23T10:02:32.297Z,2.60
2022-12-23T10:04:44.248Z,3.10
2022-12-23T10:07:02.598Z,4.05
2022-12-23T10:09:09.722Z,3.95
2022-12-23T10:11:18.165Z,3.05
2022-12-23T10:13:27.478Z,3.97
2022-12-23T10:15:37.495Z,3.40
2022-12-23T10:17:43.563Z,3.20
2022-12-23T10:19:48.671Z,2.70
2022-12-23T10:21:56.815Z,2.80
2022-12-23T10:24:06.621Z,2.40
2022-12-23T10:26:25.315Z,1.88
2022-12-23T10:28:29.747Z,2.00
2022-12-23T10:31:05.842Z,2.90
2022-12-23T10:33:09.907Z,1.40
2022-12-23T10:35:23.936Z,1.27
2022-12-23T10:37:36.949Z,1.30
2022-12-23T10:39:46.800Z,1.70
2022-12-23T10:41:59.468Z,1.55
2022-12-23T10:44:53.980Z,1.10
2022-12-23T10:47:11.021Z,1.38
2022-12-23T10:49:22.598Z,1.10
2022-12-23T10:51:31.769Z,0.90
2022-12-23T10:53:41.857Z,1.25
2022-12-23T10:55:46.093Z,1.40
2022-12-23T10:57:50.452Z,1.52
2022-12-23T10:59:53.665Z,1.42
2022-12-23T11:02:06.746Z,1.50
2022-12-23T11:04:16.255Z,1.20
2022-12-23T11:06:19.476Z,1.20
2022-12-23T11:08:24.532Z,1.10
2022-12-23T11:10:33.282Z,0.70
2022-12-23T11:12:43.029Z,0.90
2022-12-23T11:14:53.846Z,0.88
2022-12-23T11:16:56.989Z,1.20
2022-12-23T11:19:03.414Z,1.10
2022-12-23T11:21:08.054Z,1.42
2022-12-23T11:23:26.377Z,1.03
2022-12-23T11:25:36.215Z,0.80
2022-12-23T11:27:44.322Z,1.00
2022-12-23T11:29:52.134Z,0.80
2022-12-23T11:31:57.005Z,1.00
2022-12-23T11:34:02.836Z,1.13
2022-12-23T11:36:09.389Z,0.90
2022-12-23T11:38:15.163Z,1.30
2022-12-23T11:40:26.180Z,1.30
2022-12-23T11:42:32.225Z,1.48
2022-12-23T11:44:40.048Z,1.80
2022-12-23T11:46:43.240Z,1.88
2022-12-23T11:48:54.369Z,2.03
2022-12-23T11:51:03.537Z,1.70
2022-12-23T11:53:19.881Z,1.63
2022-12-23T11:55:25.952Z,1.90
2022-12-23T11:57:39.436Z,1.65
2022-12-23T11:59:45.830Z,2.00
2022-12-23T12:01:50.128Z,1.52
2022-12-23T12:04:00.080Z,1.70
2022-12-23T12:06:06.736Z,1.92
2022-12-23T12:08:14.605Z,1.90
2022-12-23T12:10:22.779Z,2.30
2022-12-23T12:12:27.538Z,2.10
2022-12-23T12:14:38.151Z,1.92
2022-12-23T12:16:56.385Z,2.00
2022-12-23T12:19:06.708Z,1.83
2022-12-23T12:21:16.325Z,1.65
2022-12-23T12:23:24.209Z,1.63
2022-12-23T12:25:39.978Z,1.42
2022-12-23T12:27:48.320Z,3.55
2022-12-23T12:30:01.053Z,3.42
2022-12-23T12:32:18.288Z,2.67
2022-12-23T12:34:43.641Z,2.00
2022-12-23T12:36:56.311Z,2.03
2022-12-23T12:39:01.006Z,1.67
2022-12-23T12:41:16.195Z,1.70
2022-12-23T12:43:28.806Z,1.50
2022-12-23T12:45:45.023Z,1.75
2022-12-23T12:48:16.450Z,2.03
2022-12-23T12:50:29.267Z,2.50
2022-12-23T12:52:39.283Z,1.97
2022-12-23T12:54:48.992Z,1.92
2022-12-23T12:56:54.917Z,2.00
2022-12-23T12:58:58.237Z,1.98
2022-12-23T13:01:28.796Z,1.40
2022-12-23T13:04:05.344Z,1.73
2022-12-23T13:06:21.923Z,2.03
2022-12-23T13:08:44.213Z,4.63
2022-12-23T13:10:52.981Z,4.30
2022-12-23T13:13:04.901Z,3.80
2022-12-23T13:15:21.908Z,1.80
2022-12-23T13:17:32.822Z,2.50
2022-12-23T13:19:45.650Z,2.93
2022-12-23T13:21:56.264Z,2.43
2022-12-23T13:24:12.161Z,2.30
2022-12-23T13:26:27.685Z,1.88
2022-12-23T13:28:40.036Z,4.70
2022-12-23T13:30:52.972Z,3.50
2022-12-23T13:33:22.120Z,2.00
2022-12-23T13:35:38.626Z,1.87
2022-12-23T13:37:52.745Z,1.80
2022-12-23T13:40:06.248Z,2.08
2022-12-23T13:42:22.939Z,1.73
2022-12-23T13:44:26.910Z,2.13
2022-12-23T13:46:42.030Z,1.95
2022-12-23T13:48:57.859Z,2.00
2022-12-23T13:51:08.492Z,1.50
2022-12-23T13:53:22.865Z,2.15
2022-12-23T13:55:56.748Z,1.88
2022-12-23T13:58:10.474Z,2.22
2022-12-23T14:00:29.555Z,2.07
2022-12-23T14:02:52.401Z,1.98
2022-12-23T14:05:01.310Z,2.55
2022-12-23T14:07:19.000Z,2.60
2022-12-23T14:09:32.748Z,1.95
2022-12-23T14:11:36.131Z,6.38
2022-12-23T14:13:45.318Z,1.90
2022-12-23T14:16:35.583Z,1.70
2022-12-23T14:19:07.295Z,3.00
2022-12-23T14:21:24.208Z,6.60
2022-12-23T14:23:45.094Z,4.78
2022-12-23T14:26:06.010Z,3.63
2022-12-23T14:28:25.173Z,3.70
2022-12-23T14:30:36.099Z,3.10
2022-12-23T14:32:49.303Z,3.35
2022-12-23T14:35:26.500Z,3.10
2022-12-23T14:37:40.913Z,3.35
2022-12-23T14:39:44.789Z,2.25
2022-12-23T14:41:52.015Z,2.08
2022-12-23T14:43:59.948Z,2.17
2022-12-23T14:46:05.790Z,1.30
2022-12-23T14:49:29.674Z,1.85
2022-12-23T14:51:33.884Z,2.35
2022-12-23T14:54:13.287Z,1.75
2022-12-23T14:56:24.532Z,1.75
2022-12-23T14:59:00.476Z,1.00
2022-12-23T15:01:10.992Z,1.83
2022-12-23T15:03:14.680Z,2.05
2022-12-23T15:05:24.202Z,1.48
2022-12-23T15:07:32.295Z,1.50
2022-12-23T15:09:41.246Z,1.00
2022-12-23T15:11:44.468Z,1.80
2022-12-23T15:13:47.789Z,1.23
2022-12-23T15:16:00.997Z,4.97
2022-12-23T15:18:08.220Z,1.70
2022-12-23T15:20:17.272Z,1.53
2022-12-23T15:22:26.829Z,3.10
2022-12-23T15:24:36.621Z,0.90
2022-12-23T15:26:51.873Z,1.30
2022-12-23T15:29:08.382Z,0.60
2022-12-23T15:31:26.467Z,1.40
2022-12-23T15:34:02.216Z,0.98
2022-12-23T15:35:59.157Z,0.77
2022-12-23T15:38:03.783Z,0.70
2022-12-23T15:40:24.597Z,0.70
2022-12-23T15:42:31.245Z,5.73
2022-12-23T15:44:38.127Z,2.20
2022-12-23T15:46:42.176Z,1.10
2022-12-23T15:48:45.681Z,0.70
2022-12-23T15:50:49.556Z,1.00
2022-12-23T15:52:55.580Z,0.97
2022-12-23T15:55:03.820Z,0.73
2022-12-23T15:57:13.409Z,1.77
2022-12-23T15:59:25.868Z,0.90
2022-12-23T16:01:37.581Z,1.30
2022-12-23T16:03:44.195Z,0.60
2022-12-23T16:05:47.680Z,0.83
2022-12-23T16:07:51.363Z,0.70
2022-12-23T16:09:56.116Z,1.17
2022-12-23T16:12:02.039Z,1.50
2022-12-23T16:14:32.504Z,0.90
2022-12-23T16:16:40.016Z,1.00
2022-12-23T16:18:47.177Z,1.17
2022-12-23T16:20:55.188Z,1.27
2022-12-23T16:23:01.715Z,1.90
2022-12-23T16:25:17.231Z,3.05
2022-12-23T16:27:33.570Z,26.15
2022-12-23T16:29:38.149Z,10.23
2022-12-23T16:31:46.116Z,2.50
2022-12-23T16:33:58.037Z,1.75
2022-12-23T16:36:18.325Z,3.50
2022-12-23T16:38:23.902Z,2.22
2022-12-23T16:40:27.169Z,2.60
2022-12-23T16:42:30.306Z,2.60
2022-12-23T16:44:33.568Z,4.35
2022-12-23T16:46:44.029Z,9.15
2022-12-23T16:48:52.558Z,14.75
2022-12-23T16:50:56.414Z,9.07
2022-12-23T16:52:59.592Z,16.20
2022-12-23T16:55:02.804Z,18.55
2022-12-23T16:57:05.974Z,29.25
2022-12-23T16:59:09.583Z,8.98
2022-12-23T17:01:15.596Z,15.60
2022-12-23T17:03:21.272Z,9.73
2022-12-23T17:05:25.255Z,4.20
2022-12-23T17:07:28.755Z,5.35
2022-12-23T17:09:31.947Z,3.20
2022-12-23T17:11:39.662Z,3.80
2022-12-23T17:13:43.111Z,3.60
2022-12-23T17:15:46.741Z,1.85
2022-12-23T17:17:50.880Z,2.83
2022-12-23T17:19:56.275Z,2.50
2022-12-23T17:22:02.986Z,1.90
2022-12-23T17:24:11.788Z,2.00
2022-12-23T17:26:15.043Z,1.50
2022-12-23T17:28:18.202Z,1.10
2022-12-23T17:30:24.686Z,1.55
2022-12-23T17:32:28.852Z,1.60
2022-12-23T17:34:32.067Z,2.08
2022-12-23T17:36:36.664Z,1.83
2022-12-23T17:38:40.492Z,1.90
2022-12-23T17:40:44.686Z,1.60
2022-12-23T17:42:48.698Z,1.40
2022-12-23T17:44:51.900Z,1.38
2022-12-23T17:46:58.188Z,1.73
2022-12-23T17:49:01.364Z,8.40
2022-12-23T17:51:04.663Z,1.92
2022-12-23T17:53:11.027Z,1.70
2022-12-23T17:55:20.337Z,2.08
2022-12-23T17:57:26.655Z,1.33
2022-12-23T17:59:29.895Z,1.10
2022-12-23T18:01:33.700Z,1.08
2022-12-23T18:03:36.935Z,1.80
2022-12-23T18:05:40.116Z,1.20
2022-12-23T18:07:43.572Z,1.02
2022-12-23T18:09:48.622Z,1.17
2022-12-23T18:11:51.849Z,1.80
2022-12-23T18:13:56.009Z,1.10
2022-12-23T18:15:59.231Z,1.90
2022-12-23T18:18:02.914Z,1.90
2022-12-23T18:20:07.856Z,1.42
2022-12-23T18:22:18.516Z,1.80
2022-12-23T18:24:21.748Z,1.90
2022-12-23T18:26:26.466Z,1.35
2022-12-23T18:28:29.798Z,1.40
2022-12-23T18:30:33.067Z,2.50
2022-12-23T18:32:36.272Z,2.45
2022-12-23T18:34:39.429Z,2.10
2022-12-23T18:36:42.699Z,1.90
2022-12-23T18:38:45.923Z,2.00
2022-12-23T18:40:51.984Z,1.88
2022-12-23T18:42:57.239Z,1.48
2022-12-23T18:45:00.551Z,1.20
2022-12-23T18:47:03.721Z,1.50
2022-12-23T18:49:07.189Z,1.85
2022-12-23T18:51:14.249Z,2.20
2022-12-23T18:53:24.575Z,1.20
2022-12-23T18:55:30.283Z,0.77
2022-12-23T18:57:33.451Z,1.00
2022-12-23T18:59:39.589Z,2.72
2022-12-23T19:01:42.862Z,0.85
2022-12-23T19:03:46.225Z,0.60
2022-12-23T19:05:50.138Z,0.80
2022-12-23T19:07:57.118Z,0.60
2022-12-23T19:10:00.331Z,0.50
2022-12-23T19:12:04.825Z,0.65
2022-12-23T19:14:08.054Z,0.45
2022-12-23T19:16:15.578Z,0.30
2022-12-23T19:18:22.419Z,0.40
2022-12-23T19:20:25.565Z,0.35
2022-12-23T19:22:28.744Z,0.57
2022-12-23T19:24:31.928Z,0.50
2022-12-23T19:26:35.081Z,0.68
2022-12-23T19:28:38.616Z,0.60
2022-12-23T19:30:42.764Z,0.90
2022-12-23T19:32:49.975Z,0.55
2022-12-23T19:34:53.165Z,0.52
2022-12-23T19:36:56.335Z,0.38
2022-12-23T19:38:59.741Z,0.40
2022-12-23T19:41:02.907Z,1.00
2022-12-23T19:43:06.138Z,1.20
2022-12-23T19:45:12.339Z,1.80
2022-12-23T19:47:15.502Z,1.65
2022-12-23T19:49:20.549Z,2.35
2022-12-23T19:51:23.861Z,1.00
2022-12-23T19:53:27.803Z,1.05
2022-12-23T19:55:30.974Z,0.88
2022-12-23T19:57:34.672Z,1.25
2022-12-23T19:59:37.833Z,1.60
2022-12-23T20:01:41.099Z,1.75
2022-12-23T20:03:46.760Z,1.00
2022-12-23T20:05:51.944Z,0.90
2022-12-23T20:07:55.119Z,1.30
2022-12-23T20:09:58.332Z,1.80
2022-12-23T20:12:01.531Z,2.90
2022-12-23T20:14:05.918Z,5.40
2022-12-23T20:16:09.800Z,3.20
2022-12-23T20:18:12.992Z,2.25
2022-12-23T20:20:16.243Z,1.55
2022-12-23T20:22:20.735Z,0.80
2022-12-23T20:24:23.887Z,0.50
2022-12-23T20:26:27.701Z,0.50
2022-12-23T20:28:30.917Z,0.70
2022-12-23T20:30:34.148Z,0.60
2022-12-23T20:32:37.201Z,0.68
2022-12-23T20:34:40.484Z,0.43
2022-12-23T20:36:44.065Z,0.60
2022-12-23T20:38:49.549Z,0.63
2022-12-23T20:40:52.670Z,0.80
2022-12-23T20:42:55.787Z,0.60
2022-12-23T20:44:59.090Z,0.35
2022-12-23T20:47:02.460Z,0.52
2022-12-23T20:49:05.806Z,0.60
2022-12-23T20:51:11.866Z,0.63
2022-12-23T20:53:15.389Z,0.60
2022-12-23T20:55:20.071Z,0.40
2022-12-23T20:57:23.306Z,0.43
2022-12-23T20:59:26.541Z,0.73
2022-12-23T21:01:32.282Z,0.40
2022-12-23T21:03:35.825Z,1.00
2022-12-23T21:05:39.049Z,1.10
2022-12-23T21:07:42.243Z,0.90
2022-12-23T21:09:45.422Z,1.17
2022-12-23T21:11:50.285Z,0.50
2022-12-23T21:13:53.700Z,0.70
2022-12-23T21:16:02.593Z,0.70
2022-12-23T21:18:05.899Z,1.10
2022-12-23T21:20:10.477Z,0.68
2022-12-23T21:22:13.636Z,0.70
2022-12-23T21:24:16.880Z,0.63
2022-12-23T21:26:22.727Z,1.02
2022-12-23T21:28:27.281Z,0.77
2022-12-23T21:30:30.468Z,0.95
2022-12-23T21:32:33.842Z,0.55
2022-12-23T21:34:36.996Z,1.25
2022-12-23T21:36:40.327Z,0.77
2022-12-23T21:38:45.627Z,0.80
2022-12-23T21:40:49.890Z,0.73
2022-12-23T21:42:53.109Z,0.60
2022-12-23T21:44:57.866Z,1.02
2022-12-23T21:47:01.141Z,0.80
2022-12-23T21:49:04.723Z,0.90
2022-12-23T21:51:12.303Z,1.05
2022-12-23T21:53:15.508Z,1.40
2022-12-23T21:55:18.663Z,1.65
2022-12-23T21:57:21.903Z,0.88
2022-12-23T21:59:29.679Z,0.85
2022-12-23T22:01:37.557Z,0.93
2022-12-23T22:03:41.210Z,1.02
2022-12-23T22:05:44.531Z,0.90
2022-12-23T22:07:47.908Z,0.90
2022-12-23T22:09:51.180Z,0.80
2022-12-23T22:11:54.539Z,1.38
2022-12-23T22:13:59.080Z,1.67
2022-12-23T22:16:02.366Z,1.20
2022-12-23T22:18:07.117Z,1.08
2022-12-23T22:20:11.545Z,1.65
2022-12-23T22:22:14.861Z,2.00
2022-12-23T22:24:18.089Z,1.58
2022-12-23T22:26:25.828Z,1.50
2022-12-23T22:28:32.622Z,1.15
2022-12-23T22:30:35.815Z,5.15
2022-12-23T22:32:42.434Z,2.60
2022-12-23T22:34:47.425Z,1.45
2022-12-23T22:36:51.036Z,1.77
2022-12-23T22:38:56.714Z,1.63
2022-12-23T22:40:59.952Z,1.88
2022-12-23T22:43:03.199Z,2.38
2022-12-23T22:45:09.158Z,3.10
2022-12-23T22:47:12.440Z,1.88
2022-12-23T22:49:17.110Z,1.60
2022-12-23T22:51:25.228Z,2.63
2022-12-23T22:53:30.019Z,1.48
2022-12-23T22:55:33.373Z,1.42
2022-12-23T22:57:36.871Z,1.58
2022-12-23T22:59:40.167Z,2.22
2022-12-23T23:01:43.528Z,1.50
2022-12-23T23:03:46.824Z,2.10
2022-12-23T23:05:58.888Z,2.15
2022-12-23T23:08:03.609Z,1.92
2022-12-23T23:10:08.627Z,1.52
2022-12-23T23:12:11.876Z,1.50
2022-12-23T23:14:15.225Z,2.08
2022-12-23T23:16:18.915Z,1.90
2022-12-23T23:18:23.311Z,1.45
2022-12-23T23:20:26.543Z,1.50
2022-12-23T23:22:29.793Z,1.80
2022-12-23T23:24:35.039Z,1.27
2022-12-23T23:26:38.505Z,1.80
2022-12-23T23:28:42.674Z,1.77
2022-12-23T23:30:45.916Z,1.80
2022-12-23T23:32:49.252Z,2.72
2022-12-23T23:34:52.479Z,1.60
2022-12-23T23:36:55.833Z,1.50
2022-12-23T23:38:59.081Z,1.85
2022-12-23T23:41:03.973Z,1.88
2022-12-23T23:43:07.134Z,1.25
2022-12-23T23:45:11.704Z,1.70
2022-12-23T23:47:14.945Z,1.60
2022-12-23T23:49:18.213Z,1.80
2022-12-23T23:51:21.459Z,1.52
2022-12-23T23:53:24.613Z,1.42
2022-12-23T23:55:27.834Z,2.80
2022-12-23T23:57:32.700Z,2.90
2022-12-23T23:59:35.883Z,2.15
